createdAt,value
2019-04-07T00:01:47.815Z,20.60
2019-04-07T00:04:18.246Z,21.10
2019-04-07T00:06:47.689Z,22.47
2019-04-07T00:09:17.595Z,22.03
2019-04-07T00:11:48.562Z,23.20
2019-04-07T00:14:18.093Z,21.47
2019-04-07T00:16:47.503Z,23.10
2019-04-07T00:19:17.235Z,22.43
2019-04-07T00:21:46.840Z,23.00
2019-04-07T00:24:16.661Z,22.23
2019-04-07T00:26:46.195Z,21.47
2019-04-07T00:29:17.423Z,22.83
2019-04-07T00:31:47.792Z,20.83
2019-04-07T00:34:17.478Z,21.33
2019-04-07T00:36:46.885Z,21.93
2019-04-07T00:39:16.183Z,21.63
2019-04-07T00:41:45.495Z,20.83
2019-04-07T00:44:14.868Z,20.07
2019-04-07T00:46:44.465Z,20.20
2019-04-07T00:49:13.979Z,20.27
2019-04-07T00:51:43.298Z,20.87
2019-04-07T00:54:12.691Z,19.87
2019-04-07T00:56:42.343Z,18.90
2019-04-07T00:59:11.742Z,19.07
2019-04-07T01:01:41.411Z,20.17
2019-04-07T01:04:11.136Z,21.70
2019-04-07T01:06:42.196Z,19.37
2019-04-07T01:09:12.318Z,18.23
2019-04-07T01:11:42.160Z,20.53
2019-04-07T01:14:11.516Z,21.17
2019-04-07T01:16:40.819Z,19.37
2019-04-07T01:19:10.127Z,17.57
2019-04-07T01:21:40.494Z,17.67
2019-04-07T01:24:11.056Z,17.33
2019-04-07T01:26:40.564Z,17.83
2019-04-07T01:29:10.239Z,16.77
2019-04-07T01:31:40.923Z,16.23
2019-04-07T01:34:10.618Z,16.13
2019-04-07T01:36:41.311Z,16.00
2019-04-07T01:39:11.949Z,16.07
2019-04-07T01:41:46.209Z,17.23
2019-04-07T01:44:20.220Z,17.23
2019-04-07T01:47:03.505Z,17.00
2019-04-07T01:49:51.153Z,16.00
2019-04-07T01:52:24.789Z,15.73
2019-04-07T01:54:55.943Z,16.67
2019-04-07T01:57:27.049Z,16.20
2019-04-07T01:59:59.042Z,16.67
2019-04-07T02:02:35.719Z,16.60
2019-04-07T02:05:20.932Z,16.33
2019-04-07T02:08:08.666Z,17.20
2019-04-07T02:10:57.150Z,16.53
2019-04-07T02:13:37.783Z,16.23
2019-04-07T02:16:21.163Z,16.07
2019-04-07T02:19:03.753Z,16.77
2019-04-07T02:21:34.975Z,18.73
2019-04-07T02:24:21.181Z,18.57
2019-04-07T02:26:52.286Z,19.63
2019-04-07T02:29:35.829Z,18.77
2019-04-07T02:32:09.876Z,20.83
2019-04-07T02:34:50.866Z,18.83
2019-04-07T02:37:24.949Z,22.00
2019-04-07T02:39:59.184Z,22.13
2019-04-07T02:42:40.914Z,22.10
2019-04-07T02:45:18.264Z,21.20
2019-04-07T02:47:56.490Z,22.90
2019-04-07T02:50:47.220Z,20.00
2019-04-07T02:53:24.551Z,22.60
2019-04-07T02:56:12.088Z,22.97
2019-04-07T02:59:01.406Z,20.57
2019-04-07T03:01:33.428Z,20.67
2019-04-07T03:04:11.711Z,21.27
2019-04-07T03:06:59.264Z,20.40
2019-04-07T03:09:33.504Z,20.23
2019-04-07T03:12:11.323Z,22.40
2019-04-07T03:15:00.614Z,20.83
2019-04-07T03:17:37.740Z,20.90
2019-04-07T03:20:10.351Z,21.47
2019-04-07T03:22:50.741Z,20.83
2019-04-07T03:25:24.563Z,23.23
2019-04-07T03:28:04.710Z,20.73
2019-04-07T03:30:38.653Z,21.70
2019-04-07T03:33:16.535Z,20.97
2019-04-07T03:35:52.432Z,20.23
2019-04-07T03:38:37.486Z,20.60
2019-04-07T03:41:20.248Z,19.87
2019-04-07T03:43:53.988Z,21.23
2019-04-07T03:46:25.333Z,24.53
2019-04-07T03:49:13.464Z,23.33
2019-04-07T03:51:51.794Z,23.07
2019-04-07T03:54:28.519Z,21.50
2019-04-07T03:57:00.406Z,20.33
2019-04-07T03:59:44.577Z,21.30
2019-04-07T04:02:21.696Z,21.87
2019-04-07T04:04:52.761Z,20.20
2019-04-07T04:07:31.531Z,21.07
2019-04-07T04:10:03.377Z,19.70
2019-04-07T04:12:43.742Z,19.37
2019-04-07T04:15:18.393Z,20.57
2019-04-07T04:17:48.117Z,19.73
2019-04-07T04:20:17.665Z,19.30
2019-04-07T04:22:46.973Z,20.27
2019-04-07T04:25:17.155Z,18.53
2019-04-07T04:27:46.725Z,18.40
2019-04-07T04:30:16.890Z,19.07
2019-04-07T04:32:46.425Z,20.50
2019-04-07T04:35:17.401Z,20.10
2019-04-07T04:37:51.428Z,19.67
2019-04-07T04:40:17.846Z,20.23
2019-04-07T04:42:48.446Z,19.20
2019-04-07T04:45:17.986Z,18.83
2019-04-07T04:47:48.242Z,19.53
2019-04-07T04:50:17.734Z,20.37
2019-04-07T04:52:47.129Z,19.10
2019-04-07T04:55:16.726Z,20.40
2019-04-07T04:57:46.253Z,20.17
2019-04-07T05:00:15.938Z,20.07
2019-04-07T05:02:46.832Z,19.47
2019-04-07T05:05:16.971Z,18.60
2019-04-07T05:07:55.834Z,19.67
2019-04-07T05:10:17.483Z,19.27
2019-04-07T05:12:47.212Z,19.17
2019-04-07T05:15:16.601Z,21.13
2019-04-07T05:17:45.906Z,20.30
2019-04-07T05:20:16.164Z,21.03
2019-04-07T05:22:46.538Z,22.37
2019-04-07T05:25:15.845Z,22.70
2019-04-07T05:27:45.792Z,21.50
2019-04-07T05:30:15.637Z,19.37
2019-04-07T05:32:45.028Z,20.10
2019-04-07T05:35:14.320Z,20.30
2019-04-07T05:37:44.849Z,19.00
2019-04-07T05:40:15.520Z,18.80
2019-04-07T05:42:46.577Z,18.33
2019-04-07T05:45:16.046Z,19.03
2019-04-07T05:47:49.400Z,18.37
2019-04-07T05:50:16.671Z,17.20
2019-04-07T05:52:46.579Z,16.87
2019-04-07T05:55:20.590Z,18.03
2019-04-07T05:57:48.688Z,18.50
2019-04-07T06:00:18.867Z,18.87
2019-04-07T06:02:49.410Z,19.53
2019-04-07T06:05:19.516Z,22.43
2019-04-07T06:07:49.106Z,22.13
2019-04-07T06:10:22.882Z,21.27
2019-04-07T06:12:49.585Z,21.67
2019-04-07T06:15:22.204Z,21.67
2019-04-07T06:17:51.137Z,22.53
2019-04-07T06:20:20.667Z,22.10
2019-04-07T06:22:52.940Z,21.93
2019-04-07T06:25:21.285Z,22.67
2019-04-07T06:27:51.020Z,21.00
2019-04-07T06:30:23.340Z,23.13
2019-04-07T06:32:52.852Z,21.43
2019-04-07T06:35:22.541Z,22.13
2019-04-07T06:37:54.089Z,22.10
2019-04-07T06:40:24.320Z,21.17
2019-04-07T06:42:54.709Z,20.97
2019-04-07T06:45:28.552Z,21.37
2019-04-07T06:48:08.245Z,20.13
2019-04-07T06:50:47.736Z,19.57
2019-04-07T06:53:21.123Z,18.80
2019-04-07T06:56:08.924Z,19.07
2019-04-07T06:58:43.920Z,16.97
2019-04-07T07:01:15.381Z,18.90
2019-04-07T07:04:09.594Z,19.23
2019-04-07T07:06:46.093Z,17.07
2019-04-07T07:09:28.869Z,18.13
2019-04-07T07:12:00.594Z,15.97
2019-04-07T07:14:40.549Z,17.27
2019-04-07T07:17:05.345Z,16.90
2019-04-07T07:19:43.390Z,17.10
2019-04-07T07:22:16.152Z,16.90
2019-04-07T07:24:47.163Z,15.40
2019-04-07T07:27:16.475Z,16.03
2019-04-07T07:29:47.474Z,15.23
2019-04-07T07:32:16.991Z,15.57
2019-04-07T07:34:47.779Z,15.80
2019-04-07T07:37:18.415Z,14.60
2019-04-07T07:39:49.487Z,15.20
2019-04-07T07:42:21.509Z,14.93
2019-04-07T07:44:50.365Z,15.53
2019-04-07T07:47:21.383Z,15.57
2019-04-07T07:49:51.947Z,15.67
2019-04-07T07:52:21.990Z,15.03
2019-04-07T07:54:51.912Z,15.07
2019-04-07T07:57:24.053Z,14.43
2019-04-07T07:59:53.450Z,14.83
2019-04-07T08:02:22.824Z,14.43
2019-04-07T08:04:56.322Z,14.33
2019-04-07T08:07:23.627Z,14.03
2019-04-07T08:09:54.453Z,14.83
2019-04-07T08:12:25.389Z,13.77
2019-04-07T08:14:57.197Z,13.70
2019-04-07T08:17:25.972Z,12.80
2019-04-07T08:19:55.683Z,11.60
2019-04-07T08:22:29.954Z,10.97
2019-04-07T08:24:56.361Z,10.67
2019-04-07T08:27:29.912Z,11.77
2019-04-07T08:29:57.201Z,11.63
2019-04-07T08:32:29.626Z,10.50
2019-04-07T08:35:01.458Z,11.53
2019-04-07T08:37:28.705Z,11.30
2019-04-07T08:39:58.133Z,10.23
2019-04-07T08:42:27.933Z,10.70
2019-04-07T08:44:59.457Z,9.60
2019-04-07T08:47:28.960Z,9.10
2019-04-07T08:49:58.360Z,9.13
2019-04-07T08:52:28.189Z,9.27
2019-04-07T08:54:57.944Z,9.33
2019-04-07T08:57:30.299Z,9.63
2019-04-07T09:00:00.533Z,8.83
2019-04-07T09:02:31.110Z,9.20
2019-04-07T09:05:01.280Z,9.50
2019-04-07T09:07:33.377Z,9.23
2019-04-07T09:10:03.637Z,10.07
2019-04-07T09:12:33.940Z,9.17
2019-04-07T09:15:05.272Z,8.80
2019-04-07T09:17:45.975Z,8.60
2019-04-07T09:20:31.354Z,9.10
2019-04-07T09:23:02.996Z,9.10
2019-04-07T09:25:51.210Z,9.33
2019-04-07T09:28:23.985Z,9.17
2019-04-07T09:31:01.348Z,9.60
2019-04-07T09:33:33.949Z,9.80
2019-04-07T09:36:03.810Z,9.80
2019-04-07T09:38:39.673Z,9.60
2019-04-07T09:41:27.374Z,10.27
2019-04-07T09:44:12.578Z,10.07
2019-04-07T09:46:49.979Z,10.10
2019-04-07T09:49:23.803Z,10.20
2019-04-07T09:51:58.280Z,10.07
2019-04-07T09:54:29.234Z,10.97
2019-04-07T09:57:05.900Z,12.43
2019-04-07T09:59:53.686Z,12.63
2019-04-07T10:02:25.225Z,11.47
2019-04-07T10:05:04.798Z,12.13
2019-04-07T10:07:42.786Z,12.63
2019-04-07T10:10:14.849Z,12.83
2019-04-07T10:12:46.064Z,13.07
2019-04-07T10:15:35.277Z,12.60
2019-04-07T10:18:08.783Z,25.60
2019-04-07T10:20:39.812Z,15.93
2019-04-07T10:23:14.112Z,15.23
2019-04-07T10:25:55.085Z,13.63
2019-04-07T10:28:29.121Z,14.27
2019-04-07T10:31:06.197Z,32.20
2019-04-07T10:33:40.681Z,13.80
2019-04-07T10:36:17.328Z,13.53
2019-04-07T10:38:54.178Z,13.57
2019-04-07T10:41:44.093Z,14.20
2019-04-07T10:44:31.498Z,14.10
2019-04-07T10:47:14.757Z,13.87
2019-04-07T10:50:01.447Z,14.10
2019-04-07T10:52:28.223Z,39.67
2019-04-07T10:54:59.458Z,15.47
2019-04-07T10:57:42.548Z,14.17
2019-04-07T11:00:30.301Z,13.77
2019-04-07T11:03:02.032Z,14.67
2019-04-07T11:05:43.033Z,14.57
2019-04-07T11:08:23.312Z,14.67
2019-04-07T11:11:10.793Z,14.57
2019-04-07T11:13:44.692Z,14.27
2019-04-07T11:16:32.862Z,13.23
2019-04-07T11:19:06.906Z,14.20
2019-04-07T11:21:55.600Z,17.60
2019-04-07T11:24:35.910Z,17.07
2019-04-07T11:27:13.149Z,13.90
2019-04-07T11:29:44.153Z,13.97
2019-04-07T11:32:24.208Z,14.33
2019-04-07T11:34:58.446Z,13.80
2019-04-07T11:37:31.217Z,14.37
2019-04-07T11:40:19.205Z,14.53
2019-04-07T11:43:07.038Z,15.03
2019-04-07T11:45:58.482Z,15.80
2019-04-07T11:48:21.028Z,18.13
2019-04-07T11:51:02.031Z,15.27
2019-04-07T11:53:39.682Z,13.87
2019-04-07T11:56:11.510Z,14.00
2019-04-07T11:58:43.054Z,14.13
2019-04-07T12:01:19.916Z,13.97
2019-04-07T12:03:57.215Z,14.67
2019-04-07T12:06:37.490Z,15.43
2019-04-07T12:09:14.110Z,15.37
2019-04-07T12:11:57.236Z,15.57
2019-04-07T12:14:45.471Z,16.57
2019-04-07T12:17:16.672Z,16.43
2019-04-07T12:19:48.307Z,15.30
2019-04-07T12:22:26.010Z,47.63
2019-04-07T12:25:05.762Z,48.07
2019-04-07T12:27:43.096Z,14.17
2019-04-07T12:30:15.551Z,15.03
2019-04-07T12:33:05.012Z,15.17
2019-04-07T12:35:36.551Z,14.30
2019-04-07T12:38:16.639Z,15.30
2019-04-07T12:41:12.507Z,16.12
2019-04-07T12:43:40.400Z,15.00
2019-04-07T12:46:11.510Z,15.90
2019-04-07T12:48:48.253Z,15.05
2019-04-07T12:51:22.395Z,14.60
2019-04-07T12:53:53.985Z,34.08
2019-04-07T12:56:34.164Z,15.15
2019-04-07T12:59:08.025Z,14.13
2019-04-07T13:01:51.068Z,13.33
2019-04-07T13:04:25.467Z,12.90
2019-04-07T13:07:17.082Z,12.90
2019-04-07T13:10:04.153Z,13.53
2019-04-07T13:12:36.490Z,13.27
2019-04-07T13:15:29.936Z,11.53
2019-04-07T13:18:19.657Z,13.43
2019-04-07T13:21:03.313Z,12.83
2019-04-07T13:23:51.445Z,13.83
2019-04-07T13:26:31.994Z,13.07
2019-04-07T13:29:04.340Z,13.23
2019-04-07T13:31:36.298Z,13.70
2019-04-07T13:34:24.480Z,12.87
2019-04-07T13:37:10.561Z,13.30
2019-04-07T13:39:57.726Z,13.70
2019-04-07T13:42:32.453Z,12.50
2019-04-07T13:45:11.260Z,13.23
2019-04-07T13:47:47.014Z,13.70
2019-04-07T13:50:21.475Z,13.60
2019-04-07T13:53:02.735Z,14.40
2019-04-07T13:55:40.922Z,13.77
2019-04-07T13:58:12.092Z,13.07
2019-04-07T14:00:48.221Z,12.50
2019-04-07T14:03:31.317Z,13.60
2019-04-07T14:06:20.595Z,15.50
2019-04-07T14:09:01.326Z,15.50
2019-04-07T14:11:34.968Z,13.43
2019-04-07T14:14:15.746Z,13.67
2019-04-07T14:16:49.766Z,13.93
2019-04-07T14:19:21.057Z,14.03
2019-04-07T14:21:53.438Z,14.77
2019-04-07T14:24:33.306Z,14.80
2019-04-07T14:27:07.544Z,15.60
2019-04-07T14:29:39.372Z,15.63
2019-04-07T14:32:18.378Z,15.03
2019-04-07T14:34:49.885Z,15.70
2019-04-07T14:37:21.757Z,15.23
2019-04-07T14:39:56.704Z,16.27
2019-04-07T14:42:35.210Z,15.20
2019-04-07T14:45:09.576Z,15.03
2019-04-07T14:47:41.430Z,14.60
2019-04-07T14:50:21.762Z,15.60
2019-04-07T14:53:11.049Z,16.60
2019-04-07T14:56:02.230Z,16.30
2019-04-07T14:58:31.389Z,15.50
2019-04-07T15:01:04.856Z,15.70
2019-04-07T15:03:35.195Z,15.60
2019-04-07T15:06:05.367Z,16.57
2019-04-07T15:08:40.957Z,16.17
2019-04-07T15:11:23.762Z,16.10
2019-04-07T15:13:57.073Z,17.30
2019-04-07T15:16:24.222Z,23.27
2019-04-07T15:18:55.004Z,18.60
2019-04-07T15:21:25.328Z,17.00
2019-04-07T15:23:54.730Z,16.77
2019-04-07T15:26:24.745Z,15.60
2019-04-07T15:28:54.226Z,15.90
2019-04-07T15:31:24.857Z,16.03
2019-04-07T15:33:55.235Z,16.17
2019-04-07T15:36:25.409Z,15.80
2019-04-07T15:38:55.917Z,15.90
2019-04-07T15:41:27.483Z,15.10
2019-04-07T15:43:57.324Z,15.60
2019-04-07T15:46:27.769Z,17.17
2019-04-07T15:48:57.119Z,15.23
2019-04-07T15:51:26.473Z,16.83
2019-04-07T15:53:56.488Z,14.57
2019-04-07T15:56:27.137Z,12.87
2019-04-07T15:59:00.107Z,13.63
2019-04-07T16:01:28.023Z,12.90
2019-04-07T16:03:57.413Z,12.97
2019-04-07T16:06:28.001Z,12.87
2019-04-07T16:09:00.769Z,12.70
2019-04-07T16:11:30.473Z,12.77
2019-04-07T16:13:59.606Z,11.53
2019-04-07T16:16:29.544Z,13.13
2019-04-07T16:18:59.365Z,12.67
2019-04-07T16:21:29.793Z,12.43
2019-04-07T16:23:59.480Z,13.53
2019-04-07T16:26:31.127Z,19.93
2019-04-07T16:29:01.270Z,22.63
2019-04-07T16:31:32.235Z,13.80
2019-04-07T16:34:05.725Z,14.03
2019-04-07T16:36:32.692Z,14.13
2019-04-07T16:39:02.981Z,14.03
2019-04-07T16:41:33.000Z,13.67
2019-04-07T16:44:04.879Z,13.13
2019-04-07T16:46:33.763Z,13.83
2019-04-07T16:49:03.275Z,14.70
2019-04-07T16:51:33.914Z,14.10
2019-04-07T16:54:08.092Z,14.40
2019-04-07T16:56:34.999Z,15.87
2019-04-07T16:59:08.160Z,15.07
2019-04-07T17:01:35.493Z,15.10
2019-04-07T17:04:04.812Z,15.37
2019-04-07T17:06:35.968Z,15.77
2019-04-07T17:09:08.720Z,16.83
2019-04-07T17:11:40.689Z,15.83
2019-04-07T17:14:09.474Z,17.00
2019-04-07T17:16:44.337Z,17.20
2019-04-07T17:19:10.888Z,16.87
2019-04-07T17:21:42.663Z,16.80
2019-04-07T17:24:11.277Z,15.70
2019-04-07T17:26:41.478Z,18.43
2019-04-07T17:29:10.976Z,17.50
2019-04-07T17:31:41.137Z,17.43
2019-04-07T17:34:12.070Z,16.80
2019-04-07T17:36:41.596Z,17.83
2019-04-07T17:39:14.403Z,18.87
2019-04-07T17:41:48.327Z,18.13
2019-04-07T17:44:24.517Z,18.33
2019-04-07T17:47:08.388Z,18.93
2019-04-07T17:49:58.847Z,18.27
2019-04-07T17:52:35.742Z,18.77
2019-04-07T17:55:08.080Z,17.33
2019-04-07T17:57:41.753Z,18.27
2019-04-07T18:00:22.545Z,17.53
2019-04-07T18:03:11.102Z,18.87
2019-04-07T18:06:00.491Z,18.60
2019-04-07T18:08:45.599Z,19.80
2019-04-07T18:11:20.157Z,18.37
2019-04-07T18:13:58.254Z,20.13
2019-04-07T18:16:26.798Z,18.70
2019-04-07T18:19:10.838Z,19.30
2019-04-07T18:21:59.913Z,19.80
2019-04-07T18:24:34.121Z,18.57
2019-04-07T18:27:05.858Z,19.40
2019-04-07T18:29:52.770Z,19.93
2019-04-07T18:32:43.019Z,21.93
2019-04-07T18:35:13.931Z,20.93
2019-04-07T18:38:02.083Z,21.30
2019-04-07T18:40:42.904Z,23.83
2019-04-07T18:43:21.467Z,24.67
2019-04-07T18:46:08.434Z,24.10
2019-04-07T18:48:49.781Z,25.33
2019-04-07T18:51:20.856Z,25.30
2019-04-07T18:53:51.973Z,25.00
2019-04-07T18:56:40.497Z,22.30
2019-04-07T18:59:12.942Z,23.23
2019-04-07T19:01:52.965Z,23.17
2019-04-07T19:04:28.434Z,24.43
2019-04-07T19:07:14.887Z,23.40
2019-04-07T19:10:07.200Z,23.27
2019-04-07T19:12:29.848Z,23.83
2019-04-07T19:15:22.891Z,23.13
2019-04-07T19:18:05.896Z,23.60
2019-04-07T19:20:38.630Z,23.60
2019-04-07T19:23:28.461Z,26.47
2019-04-07T19:26:02.010Z,24.70
2019-04-07T19:28:35.586Z,26.80
2019-04-07T19:31:16.230Z,27.13
2019-04-07T19:34:03.769Z,25.77
2019-04-07T19:36:42.778Z,25.33
2019-04-07T19:39:21.404Z,25.17
2019-04-07T19:41:51.353Z,25.53
2019-04-07T19:44:41.497Z,24.93
2019-04-07T19:47:12.076Z,24.40
2019-04-07T19:49:56.133Z,26.77
2019-04-07T19:52:43.334Z,26.30
2019-04-07T19:55:26.599Z,24.73
2019-04-07T19:58:02.623Z,23.80
2019-04-07T20:00:35.548Z,23.03
2019-04-07T20:06:23.072Z,23.80
2019-04-07T20:08:57.845Z,22.37
2019-04-07T20:11:31.719Z,23.87
2019-04-07T20:14:02.851Z,24.17
2019-04-07T20:16:34.018Z,22.37
2019-04-07T20:19:15.444Z,22.87
2019-04-07T20:21:54.719Z,22.80
2019-04-07T20:24:28.088Z,24.80
2019-04-07T20:27:15.607Z,22.70
2019-04-07T20:29:49.681Z,23.73
2019-04-07T20:32:30.534Z,23.47
2019-04-07T20:35:20.835Z,23.63
2019-04-07T20:38:04.749Z,24.63
2019-04-07T20:40:38.436Z,23.80
2019-04-07T20:43:14.740Z,24.63
2019-04-07T20:45:49.736Z,24.60
2019-04-07T20:48:19.185Z,25.00
2019-04-07T20:50:52.947Z,24.77
2019-04-07T20:53:33.695Z,23.87
2019-04-07T20:56:16.724Z,23.10
2019-04-07T20:59:04.098Z,23.30
2019-04-07T21:01:43.000Z,24.37
2019-04-07T21:04:15.007Z,24.73
2019-04-07T21:07:02.285Z,24.77
2019-04-07T21:09:50.019Z,24.50
2019-04-07T21:12:23.848Z,24.50
2019-04-07T21:15:16.581Z,26.10
2019-04-07T21:17:48.664Z,23.63
2019-04-07T21:20:20.103Z,24.43
2019-04-07T21:22:57.282Z,23.57
2019-04-07T21:25:44.662Z,22.50
2019-04-07T21:28:16.092Z,22.17
2019-04-07T21:30:47.174Z,23.87
2019-04-07T21:33:25.613Z,22.23
2019-04-07T21:36:12.772Z,24.13
2019-04-07T21:38:45.369Z,24.97
2019-04-07T21:41:22.460Z,26.03
2019-04-07T21:43:57.316Z,23.80
2019-04-07T21:46:44.981Z,23.23
2019-04-07T21:49:15.957Z,23.87
2019-04-07T21:51:53.458Z,23.83
2019-04-07T21:54:41.901Z,22.33
2019-04-07T21:57:14.090Z,22.17
2019-04-07T21:59:45.842Z,22.63
2019-04-07T22:02:23.658Z,22.57
2019-04-07T22:05:13.598Z,23.00
2019-04-07T22:07:44.960Z,23.83
2019-04-07T22:10:19.461Z,27.40
2019-04-07T22:12:48.073Z,26.23
2019-04-07T22:15:17.549Z,26.27
2019-04-07T22:17:47.804Z,25.33
2019-04-07T22:20:18.989Z,25.63
2019-04-07T22:22:49.670Z,26.20
2019-04-07T22:25:22.713Z,23.70
2019-04-07T22:27:55.622Z,23.73
2019-04-07T22:30:24.262Z,21.63
2019-04-07T22:32:54.200Z,22.97
2019-04-07T22:35:24.566Z,21.40
2019-04-07T22:37:54.982Z,23.27
2019-04-07T22:40:26.480Z,23.63
2019-04-07T22:42:57.274Z,22.97
2019-04-07T22:45:29.736Z,22.67
2019-04-07T22:47:57.718Z,23.53
2019-04-07T22:50:27.246Z,22.43
2019-04-07T22:52:57.530Z,22.37
2019-04-07T22:55:27.050Z,22.50
2019-04-07T22:57:56.488Z,22.13
2019-04-07T23:00:27.164Z,22.97
2019-04-07T23:02:56.536Z,21.63
2019-04-07T23:05:25.850Z,22.63
2019-04-07T23:07:55.233Z,23.30
2019-04-07T23:10:37.746Z,22.23
2019-04-07T23:13:07.745Z,22.07
2019-04-07T23:15:44.354Z,23.57
2019-04-07T23:18:09.436Z,23.77
2019-04-07T23:20:39.632Z,24.67
2019-04-07T23:23:09.074Z,23.07
2019-04-07T23:25:38.554Z,22.27
2019-04-07T23:28:08.245Z,23.30
2019-04-07T23:30:37.756Z,21.73
2019-04-07T23:33:08.162Z,22.77
2019-04-07T23:35:37.742Z,21.83
2019-04-07T23:38:07.898Z,22.70
2019-04-07T23:40:37.747Z,22.13
2019-04-07T23:43:07.117Z,23.20
2019-04-07T23:45:36.442Z,21.10
2019-04-07T23:48:06.825Z,21.73
2019-04-07T23:50:39.121Z,21.53
2019-04-07T23:53:45.892Z,21.93
2019-04-07T23:56:15.666Z,21.43
2019-04-07T23:58:45.615Z,22.80
